Flight Track Log - Related Links

Times and Time Zones

All times are in EDT time to prevent confusion due to time zone crossing. See the SWA1103 flight status page for this flight to view local times or setup timezone preferences in your user account.

Time Position Orientation Groundspeed Altitude Reporting Facility
EDT Latitude Longitude Course Direction KTS MPH feet Rate Location/Type
Thu 05:32:36 PM 39.1833 -76.7500 284° West 202 232 2,800  Level Potomac TRACON
Thu 05:33:36 PM 39.2000 -76.8333 284° West 247 284 4,800 3,165 Climbing Potomac TRACON
Thu 05:34:43 PM 39.2167 -76.9500 280° West 259 298 9,500 3,307 Climbing Potomac TRACON
Thu 05:35:43 PM 39.2167 -77.0500 270° West 298 343 11,800 2,727 Climbing Potomac TRACON
Thu 05:36:44 PM 39.2000 -77.1667 260° West 342 394 15,000 2,898 Climbing Potomac TRACON
Thu 05:38:39 PM 39.0514 -77.2917 213° Southwest 369 425 20,300 2,674 Climbing Washington Center
Thu 05:39:39 PM 39.0186 -77.4083 250° West 351 404 22,800 1,650 Climbing Washington Center
Thu 05:40:39 PM 39.0103 -77.5417 265° West 343 395 23,600 1,750 Climbing Washington Center
Thu 05:41:39 PM 39.0017 -77.6831 266° West 365 420 26,300 1,700 Climbing Washington Center
Thu 05:42:39 PM 38.9931 -77.8031 265° West 374 430 27,000 1,100 Climbing Washington Center
Thu 05:43:39 PM 39.0194 -77.9508 283° West 385 443 28,500 1,850 Climbing Washington Center
Thu 05:44:39 PM 39.0522 -78.0828 288° West 390 449 30,700 1,750 Climbing Washington Center
Thu 05:45:39 PM 39.0556 -78.2192 272° West 390 449 32,000 650 Climbing Washington Center
Thu 05:46:39 PM 39.0567 -78.3556 271° West 390 449 32,000 250 Level Washington Center
Thu 05:47:39 PM 39.0556 -78.4919 269° West 383 441 32,500 500 Climbing Washington Center
Thu 05:48:39 PM 39.0544 -78.6281 269° West 383 441 33,000 250 Climbing Washington Center
Thu 05:49:39 PM 39.0550 -78.7672 270° West 383 441 33,000  Level Washington Center
Thu 05:50:39 PM 39.0536 -78.8981 269° West 383 441 33,000 650 Level Washington Center
Thu 05:51:39 PM 39.0517 -79.0344 269° West 383 441 34,300 1,550 Climbing Washington Center
Thu 05:52:39 PM 39.0500 -79.1653 269° West 378 435 36,100 1,600 Climbing Washington Center
Thu 05:53:39 PM 39.0481 -79.2961 269° West 372 428 37,500 950 Climbing Washington Center
Thu 05:54:39 PM 39.0464 -79.4217 269° West 367 422 38,000 250 Climbing Washington Center
Thu 05:55:39 PM 39.0461 -79.5528 270° West 367 422 38,000  Level Washington Center
Thu 05:56:39 PM 39.0444 -79.6703 269° West 377 434 38,000  Level Washington Center
Thu 05:57:39 PM 39.0419 -79.8011 269° West 372 428 38,000  Level Washington Center
Thu 05:58:39 PM 39.0389 -79.9425 268° West 367 422 38,000  Level Washington Center
Thu 06:00:30 PM 39.0300 -80.1817 267° West 361 415 38,000  Level Indianapolis Center
Thu 06:01:32 PM 39.0272 -80.3097 268° West 359 413 38,000  Level Indianapolis Center
Thu 06:02:34 PM 39.0758 -80.4253 298° West 370 426 38,000  Level Indianapolis Center
Thu 06:03:36 PM 39.1233 -80.5406 298° West 365 420 38,000  Level Indianapolis Center
Thu 06:04:38 PM 39.1733 -80.6564 299° West 369 425 38,000  Level Indianapolis Center
Thu 06:05:40 PM 39.2225 -80.7719 299° West 369 425 38,000  Level Indianapolis Center
Thu 06:06:42 PM 39.2819 -80.9125 299° West 373 429 38,000  Level Indianapolis Center
Thu 06:07:44 PM 39.3322 -81.0286 299° West 372 428 38,000  Level Indianapolis Center
Thu 06:08:46 PM 39.3822 -81.1472 299° West 377 434 38,000  Level Indianapolis Center
Thu 06:09:48 PM 39.4325 -81.2672 299° West 380 437 38,000  Level Indianapolis Center
Thu 06:10:50 PM 39.4814 -81.3872 298° West 379 436 38,000  Level Indianapolis Center
Thu 06:11:52 PM 39.5339 -81.5072 300° West 384 442 38,000  Level Indianapolis Center
Thu 06:12:54 PM 39.5908 -81.6486 298° West 372 428 38,000  Level Indianapolis Center
Thu 06:13:56 PM 39.6411 -81.7661 299° West 373 429 38,000  Level Indianapolis Center
Thu 06:14:58 PM 39.6886 -81.8850 297° West 373 429 38,000  Level Indianapolis Center
Thu 06:16:01 PM 39.7422 -82.0136 298° West 372 428 38,000  Level Indianapolis Center
Thu 06:17:03 PM 39.7908 -82.1339 298° West 373 429 38,000  Level Indianapolis Center
Thu 06:18:05 PM 39.8403 -82.2536 298° West 373 429 38,000  Level Indianapolis Center
Thu 06:19:07 PM 39.8894 -82.3736 298° West 373 429 38,000  Level Indianapolis Center
Thu 06:20:09 PM 39.9386 -82.4944 298° West 375 432 38,000  Level Indianapolis Center
Thu 06:21:11 PM 39.9867 -82.6158 297° West 374 430 38,000  Level Indianapolis Center
Thu 06:22:13 PM 40.0433 -82.7567 298° West 373 429 38,000  Level Indianapolis Center
Thu 06:23:15 PM 40.0922 -82.8775 298° West 374 430 38,000  Level Indianapolis Center
Thu 06:24:17 PM 40.1406 -83.0000 297° West 377 434 38,000  Level Indianapolis Center
Thu 06:25:19 PM 40.1889 -83.1217 298° West 376 433 38,000  Level Indianapolis Center
Thu 06:26:21 PM 40.2372 -83.2431 298° West 376 433 38,000  Level Indianapolis Center
Thu 06:27:23 PM 40.2853 -83.3656 297° West 377 434 38,000 -532 Level Indianapolis Center
Thu 06:28:25 PM 40.3408 -83.5092 297° West 378 435 36,900 -968 Descending Indianapolis Center
Thu 06:29:27 PM 40.3878 -83.6308 297° West 375 432 36,000 -726 Descending Indianapolis Center
Thu 06:30:29 PM 40.4347 -83.7500 297° West 369 425 35,400 -1,016 Descending Indianapolis Center
Thu 06:31:31 PM 40.4814 -83.8722 297° West 371 427 33,900 -1,258 Descending Indianapolis Center
Thu 06:32:33 PM 40.5281 -83.9883 298° West 360 414 32,800 -1,056 Descending Indianapolis Center
Thu 06:33:36 PM 40.5697 -84.1022 296° West 345 397 31,700 -1,104 Descending Indianapolis Center
Thu 06:34:38 PM 40.6200 -84.2306 297° West 337 388 30,500 -823 Descending Indianapolis Center
Thu 06:35:40 PM 40.6611 -84.3394 296° West 332 382 30,000 -242 Descending Indianapolis Center
Thu 06:36:42 PM 40.7047 -84.4533 297° West 343 395 30,000  Level Indianapolis Center
Thu 06:37:03 PM 40.7178 -84.4872 297° West 344 396 30,000  Level Chicago Center
Thu 06:38:05 PM 40.7583 -84.5967 296° West 337 388 30,000  Level Chicago Center
Thu 06:39:07 PM 40.7994 -84.7036 297° West 330 380 30,000 -509 Level Chicago Center
Thu 06:40:50 PM 40.8992 -84.8628 310° West 330 380 28,600 -871 Descending Indianapolis Center
Thu 06:41:11 PM 40.9306 -84.9003 318° Northwest 330 380 28,200 -1,000 Descending Chicago Center
Thu 06:42:14 PM 40.9889 -84.9914 310° West 332 382 27,200 -960 Descending Chicago Center
Thu 06:43:16 PM 41.0386 -85.0881 304° West 322 371 26,200 -823 Descending Chicago Center
Thu 06:44:18 PM 41.0944 -85.1953 305° West 342 394 25,500 -823 Descending Chicago Center
Thu 06:45:20 PM 41.1528 -85.3075 305° West 367 422 24,500 -1,065 Descending Chicago Center
Thu 06:46:22 PM 41.2222 -85.4411 305° West 366 421 23,300 -1,113 Descending Chicago Center
Thu 06:47:24 PM 41.2806 -85.5531 305° West 366 421 22,200 -1,016 Descending Chicago Center
Thu 06:48:26 PM 41.3375 -85.6625 305° West 360 414 21,200 -968 Descending Chicago Center
Thu 06:49:28 PM 41.3928 -85.7711 304° West 354 407 20,200 -1,016 Descending Chicago Center
Thu 06:50:30 PM 41.4469 -85.8761 305° West 345 397 19,100 -1,016 Descending Chicago Center
Thu 06:51:32 PM 41.4989 -85.9789 304° West 336 387 18,100 -1,210 Descending Chicago Center
Thu 06:52:34 PM 41.5253 -86.0969 287° West 346 398 16,600 -2,190 Descending Chicago Center
Thu 06:53:38 PM 41.5231 -86.2442 269° West 336 387 13,500 -2,400 Descending Chicago Center
Thu 06:54:39 PM 41.5231 -86.3564 270° West 312 359 11,600 -1,561 Descending Chicago Center
Thu 06:55:41 PM 41.5225 -86.4664 270° West 299 344 10,300 -774 Descending Chicago Center
Thu 06:56:43 PM 41.4975 -86.5603 250° West 282 325 10,000 -290 Descending Chicago Center
Thu 06:57:45 PM 41.4486 -86.6358 229° Southwest 270 311 9,700 -629 Descending Chicago Center
Thu 06:58:47 PM 41.4072 -86.7164 236° Southwest 264 304 8,700 -1,065 Descending Chicago Center
Thu 06:59:49 PM 41.4331 -86.8261 287° West 260 299 7,500 -1,048 Descending Chicago Center
Thu 07:00:53 PM 41.4558 -86.9158 289° West 258 297 6,500 -714 Descending Chicago Center
Thu 07:01:55 PM 41.4792 -87.0069 289° West 260 299 6,000 -240 Descending Chicago Center
Thu 07:02:58 PM 41.5011 -87.0961 288° West 257 296 6,000  Level Chicago Center
Thu 07:03:43 PM 41.5167 -87.1833 283° West 251 289 6,000 -182 Level Chicago TRACON
Thu 07:04:37 PM 41.5167 -87.2667 270° West 255 293 5,700 -950 Descending Chicago TRACON
Thu 07:05:43 PM 41.5167 -87.3667 270° West 255 293 4,100 -1,186 Descending Chicago TRACON
Thu 07:06:03 PM 41.5278 -87.3886 304° West 255 293 4,000 -72 Descending Chicago Center
Thu 07:07:06 PM 41.5686 -87.4494 312° West 235 270 4,000  Level Chicago Center
Thu 07:08:08 PM 41.6081 -87.5042 314° West 220 253 4,000  Level Chicago Center
Thu 07:09:10 PM 41.6489 -87.5625 313° West 199 229 4,000 -242 Level Chicago Center
Thu 07:10:12 PM 41.6828 -87.6103 314° West 187 215 3,500 -702 Descending Chicago Center
Thu 07:10:44 PM 41.7000 -87.6333 315° West 180 207 2,900 -1,043 Descending Chicago TRACON
Thu 07:11:44 PM 41.7333 -87.6833 312° West 153 176 1,900 -850 Descending Chicago TRACON
Thu 07:12:44 PM 41.7667 -87.7167 323° Northwest 128 147 1,200 -700 Descending Chicago TRACON

Login

Don't have an account? Register now (free) for customized features, flight alerts, and more!